createdAt,value
2017-09-17T00:00:00.790Z,31.80
2017-09-17T00:02:29.104Z,27.37
2017-09-17T00:04:57.464Z,28.67
2017-09-17T00:07:25.767Z,28.73
2017-09-17T00:09:54.827Z,29.23
2017-09-17T00:12:23.126Z,29.00
2017-09-17T00:14:51.446Z,27.47
2017-09-17T00:17:19.992Z,29.87
2017-09-17T00:19:49.048Z,30.10
2017-09-17T00:22:17.352Z,30.10
2017-09-17T00:24:45.671Z,27.77
2017-09-17T00:27:13.974Z,26.60
2017-09-17T00:29:42.298Z,27.50
2017-09-17T00:32:11.897Z,26.50
2017-09-17T00:34:40.224Z,30.97
2017-09-17T00:37:09.535Z,27.90
2017-09-17T00:39:38.695Z,28.67
2017-09-17T00:42:06.992Z,28.80
2017-09-17T00:44:35.256Z,29.50
2017-09-17T00:47:03.658Z,28.13
2017-09-17T00:49:31.951Z,32.77
2017-09-17T00:52:01.127Z,29.77
2017-09-17T00:54:29.384Z,30.30
2017-09-17T00:56:57.679Z,30.10
2017-09-17T00:59:25.963Z,28.73
2017-09-17T01:01:54.618Z,29.90
2017-09-17T01:04:25.470Z,30.50
2017-09-17T01:06:53.746Z,29.63
2017-09-17T01:09:22.079Z,30.03
2017-09-17T01:11:50.418Z,29.40
2017-09-17T01:14:18.706Z,29.23
2017-09-17T01:16:47.111Z,27.80
2017-09-17T01:19:15.395Z,26.20
2017-09-17T01:21:45.216Z,29.43
2017-09-17T01:24:15.028Z,28.20
2017-09-17T01:26:44.260Z,27.27
2017-09-17T01:29:13.327Z,27.87
2017-09-17T01:31:41.693Z,28.10
2017-09-17T01:34:09.975Z,27.17
2017-09-17T01:36:38.272Z,30.37
2017-09-17T01:39:06.602Z,31.50
2017-09-17T01:41:35.971Z,32.30
2017-09-17T01:44:04.278Z,31.83
2017-09-17T01:46:32.654Z,33.73
2017-09-17T01:49:00.992Z,31.53
2017-09-17T01:51:29.352Z,30.93
2017-09-17T01:53:58.599Z,31.57
2017-09-17T01:56:26.919Z,26.43
2017-09-17T01:58:56.038Z,28.60
2017-09-17T02:01:24.349Z,29.00
2017-09-17T02:03:54.253Z,29.20
2017-09-17T02:06:24.515Z,29.20
2017-09-17T02:08:54.415Z,31.43
2017-09-17T02:11:22.713Z,31.67
2017-09-17T02:13:51.011Z,30.93
2017-09-17T02:16:19.741Z,31.70
2017-09-17T02:18:49.379Z,30.63
2017-09-17T02:21:18.180Z,30.73
2017-09-17T02:23:46.484Z,28.40
2017-09-17T02:26:16.267Z,28.10
2017-09-17T02:28:44.570Z,27.23
2017-09-17T02:31:12.872Z,27.23
2017-09-17T02:33:41.955Z,25.53
2017-09-17T02:36:11.053Z,27.27
2017-09-17T02:38:39.351Z,27.00
2017-09-17T02:41:08.343Z,26.83
2017-09-17T02:43:37.473Z,30.20
2017-09-17T02:46:06.543Z,30.83
2017-09-17T02:48:34.865Z,29.87
2017-09-17T02:51:03.144Z,32.73
2017-09-17T02:53:31.467Z,30.67
2017-09-17T02:55:59.767Z,29.80
2017-09-17T02:58:28.087Z,28.33
2017-09-17T03:00:56.398Z,26.47
2017-09-17T03:03:24.688Z,28.70
2017-09-17T03:05:52.983Z,29.77
2017-09-17T03:08:21.312Z,24.90
2017-09-17T03:10:50.415Z,30.60
2017-09-17T03:13:18.745Z,26.40
2017-09-17T03:15:47.011Z,29.50
2017-09-17T03:18:15.308Z,27.30
2017-09-17T03:20:44.443Z,29.47
2017-09-17T03:23:12.751Z,28.77
2017-09-17T03:25:41.069Z,27.20
2017-09-17T03:28:09.391Z,28.80
2017-09-17T03:30:38.451Z,28.53
2017-09-17T03:33:06.831Z,27.00
2017-09-17T03:35:35.150Z,27.83
2017-09-17T03:38:04.224Z,27.03
2017-09-17T03:40:33.085Z,29.20
2017-09-17T03:43:01.381Z,31.17
2017-09-17T03:45:29.666Z,30.20
2017-09-17T03:47:57.950Z,28.33
2017-09-17T03:50:26.730Z,30.40
2017-09-17T03:52:55.023Z,31.27
2017-09-17T03:55:23.314Z,28.60
2017-09-17T03:57:51.591Z,27.10
2017-09-17T04:00:19.889Z,27.47
2017-09-17T04:02:48.220Z,24.70
2017-09-17T04:05:16.534Z,27.87
2017-09-17T04:07:44.807Z,28.77
2017-09-17T04:10:13.104Z,29.30
2017-09-17T04:12:41.412Z,27.53
2017-09-17T04:15:09.690Z,28.10
2017-09-17T04:17:38.732Z,28.37
2017-09-17T04:20:07.047Z,27.37
2017-09-17T04:22:35.878Z,26.57
2017-09-17T04:25:04.955Z,30.67
2017-09-17T04:27:34.776Z,28.20
2017-09-17T04:30:04.573Z,27.37
2017-09-17T04:32:32.896Z,28.43
2017-09-17T04:35:01.977Z,28.03
2017-09-17T04:37:31.764Z,27.23
2017-09-17T04:40:00.462Z,26.97
2017-09-17T04:42:28.759Z,31.07
2017-09-17T04:44:57.041Z,28.37
2017-09-17T04:47:26.835Z,29.00
2017-09-17T04:49:55.213Z,30.10
2017-09-17T04:52:23.505Z,27.77
2017-09-17T04:54:51.829Z,28.87
2017-09-17T04:57:20.888Z,31.73
2017-09-17T04:59:49.167Z,29.37
2017-09-17T05:02:17.460Z,28.90
2017-09-17T05:04:46.040Z,29.93
2017-09-17T05:07:14.315Z,28.97
2017-09-17T05:09:42.709Z,31.70
2017-09-17T05:12:11.106Z,29.17
2017-09-17T05:14:41.103Z,30.37
2017-09-17T05:17:09.402Z,31.17
2017-09-17T05:19:39.835Z,31.00
2017-09-17T05:22:08.123Z,28.57
2017-09-17T05:24:37.210Z,29.60
2017-09-17T05:27:05.521Z,31.00
2017-09-17T05:29:34.587Z,28.27
2017-09-17T05:38:51.096Z,25.03
2017-09-17T05:41:19.464Z,25.17
2017-09-17T05:50:36.145Z,25.30
2017-09-17T05:53:04.418Z,28.13
2017-09-17T05:55:32.730Z,26.67
2017-09-17T05:58:01.028Z,26.77
2017-09-17T06:00:30.091Z,28.23
2017-09-17T06:02:58.391Z,26.90
2017-09-17T06:05:26.706Z,27.70
2017-09-17T06:07:55.014Z,29.33
2017-09-17T06:10:23.313Z,28.47
2017-09-17T06:12:51.608Z,27.43
2017-09-17T06:15:19.877Z,28.00
2017-09-17T06:17:48.183Z,25.90
2017-09-17T06:20:17.967Z,26.33
2017-09-17T06:22:46.674Z,21.60
2017-09-17T06:25:15.075Z,18.87
2017-09-17T06:27:43.372Z,20.27
2017-09-17T06:30:12.418Z,21.67
2017-09-17T06:32:40.840Z,24.40
2017-09-17T06:35:09.101Z,24.40
2017-09-17T06:37:37.408Z,21.00
2017-09-17T06:40:07.299Z,22.47
2017-09-17T06:42:35.591Z,24.90
2017-09-17T06:45:05.380Z,20.70
2017-09-17T06:47:33.690Z,21.90
2017-09-17T06:50:02.077Z,19.40
2017-09-17T06:52:31.906Z,21.83
2017-09-17T06:55:00.261Z,20.77
2017-09-17T06:57:28.556Z,19.30
2017-09-17T06:59:56.848Z,17.00
2017-09-17T07:02:25.159Z,18.80
2017-09-17T07:04:53.476Z,16.60
2017-09-17T07:07:21.796Z,16.17
2017-09-17T07:09:50.154Z,18.00
2017-09-17T07:12:18.446Z,17.93
2017-09-17T07:14:46.756Z,18.07
2017-09-17T07:17:16.151Z,16.43
2017-09-17T07:19:44.427Z,15.40
2017-09-17T07:22:13.476Z,15.83
2017-09-17T07:24:41.794Z,14.07
2017-09-17T07:27:10.080Z,14.90
2017-09-17T07:29:38.377Z,13.10
2017-09-17T07:32:07.809Z,13.87
2017-09-17T07:34:36.900Z,12.63
2017-09-17T07:37:05.958Z,13.23
2017-09-17T07:39:34.276Z,14.40
2017-09-17T07:42:03.344Z,13.70
2017-09-17T07:44:33.427Z,14.50
2017-09-17T07:47:03.235Z,14.00
2017-09-17T07:49:33.633Z,11.73
2017-09-17T07:52:03.431Z,14.40
2017-09-17T07:54:33.259Z,14.33
2017-09-17T07:57:03.095Z,12.97
2017-09-17T07:59:32.947Z,14.70
2017-09-17T08:02:02.763Z,13.17
2017-09-17T08:04:32.598Z,13.20
2017-09-17T08:07:02.446Z,13.83
2017-09-17T08:09:32.300Z,13.23
2017-09-17T08:12:02.134Z,13.17
2017-09-17T08:14:32.690Z,13.73
2017-09-17T08:17:02.529Z,14.57
2017-09-17T08:19:32.441Z,12.10
2017-09-17T08:22:02.278Z,13.80
2017-09-17T08:24:32.822Z,13.37
2017-09-17T08:27:02.657Z,11.83
2017-09-17T08:29:32.518Z,12.53
2017-09-17T08:32:02.935Z,11.10
2017-09-17T08:34:33.152Z,10.80
2017-09-17T08:37:02.940Z,10.67
2017-09-17T08:39:32.760Z,11.57
2017-09-17T08:42:02.580Z,11.33
2017-09-17T08:44:33.025Z,12.43
2017-09-17T08:47:02.894Z,10.77
2017-09-17T08:49:32.762Z,10.30
2017-09-17T08:52:03.449Z,11.17
2017-09-17T08:54:33.291Z,10.37
2017-09-17T08:57:03.140Z,10.07
2017-09-17T08:59:32.982Z,8.63
2017-09-17T09:02:02.783Z,8.80
2017-09-17T09:04:32.923Z,8.80
2017-09-17T09:07:02.732Z,10.10
2017-09-17T09:09:32.544Z,9.40
2017-09-17T09:12:02.394Z,8.70
2017-09-17T09:14:32.298Z,8.67
2017-09-17T09:17:02.155Z,8.70
2017-09-17T09:19:31.971Z,9.50
2017-09-17T09:22:01.859Z,9.57
2017-09-17T09:24:30.036Z,9.40
2017-09-17T09:26:58.390Z,9.00
2017-09-17T09:29:26.698Z,8.73
2017-09-17T09:31:55.041Z,7.77
2017-09-17T09:34:24.904Z,8.73
2017-09-17T09:36:53.580Z,6.90
2017-09-17T09:39:21.848Z,7.17
2017-09-17T09:41:50.883Z,8.50
2017-09-17T09:44:19.807Z,8.03
2017-09-17T09:46:48.106Z,7.03
2017-09-17T09:49:16.419Z,9.43
2017-09-17T09:51:44.972Z,8.47
2017-09-17T09:54:13.260Z,7.20
2017-09-17T09:56:41.561Z,7.70
2017-09-17T09:59:09.864Z,6.87
2017-09-17T10:01:38.175Z,6.37
2017-09-17T10:04:07.110Z,5.93
2017-09-17T10:06:36.003Z,6.60
2017-09-17T10:09:04.310Z,5.77
2017-09-17T10:11:32.662Z,5.03
2017-09-17T10:14:00.949Z,4.70
2017-09-17T10:16:29.660Z,4.83
2017-09-17T10:18:57.947Z,5.33
2017-09-17T10:21:26.266Z,3.87
2017-09-17T10:23:55.319Z,4.00
2017-09-17T10:26:23.665Z,4.20
2017-09-17T10:28:51.959Z,3.90
2017-09-17T10:31:20.267Z,4.00
2017-09-17T10:33:48.547Z,3.77
2017-09-17T10:36:16.851Z,3.30
2017-09-17T10:38:46.719Z,2.60
2017-09-17T10:41:15.017Z,3.20
2017-09-17T10:43:43.328Z,3.10
2017-09-17T10:46:12.130Z,2.10
2017-09-17T10:48:41.996Z,3.13
2017-09-17T10:51:10.312Z,2.93
2017-09-17T10:53:38.615Z,3.93
2017-09-17T10:56:06.896Z,3.40
2017-09-17T10:58:36.454Z,3.20
2017-09-17T11:01:04.789Z,2.53
2017-09-17T11:03:33.096Z,2.77
2017-09-17T11:12:50.586Z,2.53
2017-09-17T11:15:20.411Z,2.30
2017-09-17T11:17:50.265Z,3.40
2017-09-17T11:20:20.082Z,3.10
2017-09-17T11:22:49.907Z,3.13
2017-09-17T11:25:19.738Z,2.77
2017-09-17T11:27:49.577Z,2.80
2017-09-17T11:30:20.694Z,2.83
2017-09-17T11:32:50.530Z,2.90
2017-09-17T11:35:20.371Z,2.50
2017-09-17T11:37:50.284Z,2.97
2017-09-17T11:40:20.083Z,2.17
2017-09-17T11:42:49.936Z,2.00
2017-09-17T11:45:20.276Z,1.60
2017-09-17T11:47:50.099Z,1.80
2017-09-17T11:50:19.964Z,2.00
2017-09-17T11:52:49.791Z,2.17
2017-09-17T11:55:19.650Z,2.10
2017-09-17T11:57:49.504Z,2.60
2017-09-17T12:00:19.343Z,2.87
2017-09-17T12:02:49.194Z,2.50
2017-09-17T12:05:18.991Z,2.30
2017-09-17T12:07:48.864Z,2.73
2017-09-17T12:10:17.392Z,2.63
2017-09-17T12:12:45.829Z,2.50
2017-09-17T12:15:15.777Z,2.47
2017-09-17T12:17:45.658Z,2.67
2017-09-17T12:20:15.495Z,2.83
2017-09-17T12:22:51.134Z,2.40
2017-09-17T12:25:21.046Z,2.10
2017-09-17T12:27:50.865Z,2.43
2017-09-17T12:30:20.680Z,1.70
2017-09-17T12:32:50.494Z,2.13
2017-09-17T12:35:20.343Z,1.93
2017-09-17T12:37:50.386Z,2.70
2017-09-17T12:40:20.201Z,2.37
2017-09-17T12:42:50.029Z,2.77
2017-09-17T12:45:18.183Z,3.10
2017-09-17T12:47:47.299Z,2.57
2017-09-17T12:50:16.422Z,2.20
2017-09-17T12:52:44.708Z,3.10
2017-09-17T12:55:13.903Z,1.97
2017-09-17T12:57:42.238Z,3.20
2017-09-17T13:00:10.540Z,3.10
2017-09-17T13:02:38.927Z,2.73
2017-09-17T13:05:07.979Z,3.03
2017-09-17T13:07:36.266Z,2.40
2017-09-17T13:10:04.548Z,2.47
2017-09-17T13:12:32.941Z,3.33
2017-09-17T13:15:01.992Z,2.50
2017-09-17T13:17:30.281Z,2.33
2017-09-17T13:19:59.519Z,2.67
2017-09-17T13:22:29.471Z,2.80
2017-09-17T13:24:59.302Z,2.07
2017-09-17T13:27:29.114Z,2.67
2017-09-17T13:29:59.016Z,2.37
2017-09-17T13:32:29.066Z,2.20
2017-09-17T13:34:58.903Z,1.87
2017-09-17T13:37:28.705Z,2.30
2017-09-17T13:39:58.530Z,2.13
2017-09-17T13:42:28.378Z,1.77
2017-09-17T13:44:58.183Z,1.70
2017-09-17T13:47:28.019Z,2.03
2017-09-17T13:49:57.860Z,2.20
2017-09-17T13:52:26.023Z,2.87
2017-09-17T13:54:55.087Z,2.83
2017-09-17T13:57:23.383Z,2.83
2017-09-17T14:00:07.599Z,3.07
2017-09-17T14:02:41.649Z,2.37
2017-09-17T14:05:25.727Z,2.30
2017-09-17T14:08:11.613Z,2.90
2017-09-17T14:10:46.930Z,2.73
2017-09-17T14:13:15.355Z,2.97
2017-09-17T14:15:43.665Z,3.17
2017-09-17T14:18:11.988Z,2.50
2017-09-17T14:20:40.309Z,3.00
2017-09-17T14:23:08.612Z,2.50
2017-09-17T14:25:37.523Z,3.30
2017-09-17T14:28:05.830Z,1.93
2017-09-17T14:30:34.130Z,2.60
2017-09-17T14:33:02.766Z,2.50
2017-09-17T14:35:32.494Z,2.70
2017-09-17T14:38:00.792Z,3.30
2017-09-17T14:40:29.143Z,2.90
2017-09-17T14:42:57.449Z,2.63
2017-09-17T14:45:28.903Z,3.40
2017-09-17T14:47:57.172Z,2.93
2017-09-17T14:50:25.478Z,2.87
2017-09-17T14:52:56.245Z,2.93
2017-09-17T14:55:24.539Z,3.03
2017-09-17T14:57:52.863Z,2.50
2017-09-17T15:00:21.191Z,2.37
2017-09-17T15:02:49.744Z,2.50
2017-09-17T15:05:18.827Z,2.10
2017-09-17T15:07:47.127Z,2.47
2017-09-17T15:10:15.459Z,2.53
2017-09-17T15:12:44.577Z,3.00
2017-09-17T15:15:12.884Z,3.10
2017-09-17T15:17:41.220Z,3.17
2017-09-17T15:20:09.527Z,2.40
2017-09-17T15:22:37.821Z,2.47
2017-09-17T15:25:06.134Z,2.90
2017-09-17T15:27:34.420Z,3.07
2017-09-17T15:30:03.492Z,2.60
2017-09-17T15:32:31.774Z,3.27
2017-09-17T15:35:01.608Z,3.57
2017-09-17T15:37:31.383Z,3.50
2017-09-17T15:40:01.353Z,2.97
2017-09-17T15:42:31.362Z,2.30
2017-09-17T15:45:01.207Z,3.50
2017-09-17T15:47:31.042Z,2.80
2017-09-17T15:50:00.901Z,2.80
2017-09-17T15:52:30.723Z,2.87
2017-09-17T15:55:00.611Z,2.77
2017-09-17T15:57:30.479Z,2.37
2017-09-17T16:00:00.628Z,2.40
2017-09-17T16:02:32.201Z,1.97
2017-09-17T16:05:02.026Z,1.73
2017-09-17T16:07:31.832Z,2.10
2017-09-17T16:10:01.654Z,2.50
2017-09-17T16:12:31.491Z,3.10
2017-09-17T16:15:01.311Z,2.50
2017-09-17T16:17:31.159Z,2.90
2017-09-17T16:20:00.968Z,2.53
2017-09-17T16:22:30.768Z,2.73
2017-09-17T16:25:00.623Z,2.90
2017-09-17T16:27:29.550Z,2.90
2017-09-17T16:29:57.867Z,2.90
2017-09-17T16:32:26.151Z,2.30
2017-09-17T16:34:54.515Z,2.07
2017-09-17T16:37:22.812Z,2.57
2017-09-17T16:39:51.111Z,2.20
2017-09-17T16:42:20.778Z,2.20
2017-09-17T16:44:49.080Z,2.73
2017-09-17T16:47:17.371Z,2.30
2017-09-17T16:49:47.205Z,2.40
2017-09-17T16:52:15.931Z,2.43
2017-09-17T16:54:44.183Z,2.90
2017-09-17T16:57:12.508Z,2.80
2017-09-17T16:59:40.795Z,2.90
2017-09-17T17:02:09.119Z,2.80
2017-09-17T17:04:38.069Z,2.90
2017-09-17T17:07:06.391Z,3.57
2017-09-17T17:09:34.701Z,2.77
2017-09-17T17:12:02.983Z,3.40
2017-09-17T17:14:31.275Z,2.80
2017-09-17T17:17:00.730Z,4.20
2017-09-17T17:19:29.002Z,4.80
2017-09-17T17:21:57.596Z,3.80
2017-09-17T17:24:25.902Z,4.63
2017-09-17T17:26:54.183Z,4.07
2017-09-17T17:29:24.440Z,4.10
2017-09-17T17:31:53.511Z,4.40
2017-09-17T17:34:22.876Z,5.90
2017-09-17T17:36:51.163Z,6.37
2017-09-17T17:39:19.448Z,6.43
2017-09-17T17:41:47.763Z,6.63
2017-09-17T17:44:16.840Z,7.30
2017-09-17T17:46:45.120Z,5.47
2017-09-17T17:49:13.462Z,8.47
2017-09-17T17:51:42.091Z,7.77
2017-09-17T17:54:11.870Z,6.00
2017-09-17T17:56:40.950Z,5.90
2017-09-17T17:59:09.266Z,5.67
2017-09-17T18:01:37.545Z,5.77
2017-09-17T18:04:05.846Z,5.27
2017-09-17T18:06:34.139Z,6.30
2017-09-17T18:09:02.463Z,4.97
2017-09-17T18:11:31.525Z,6.57
2017-09-17T18:14:00.305Z,6.57
2017-09-17T18:16:29.020Z,8.00
2017-09-17T18:18:57.306Z,7.90
2017-09-17T18:21:26.977Z,8.47
2017-09-17T18:23:55.283Z,8.47
2017-09-17T18:26:23.609Z,8.33
2017-09-17T18:28:51.943Z,7.77
2017-09-17T18:31:20.648Z,9.60
2017-09-17T18:33:48.934Z,8.27
2017-09-17T18:36:17.216Z,9.37
2017-09-17T18:38:46.781Z,8.90
2017-09-17T18:41:15.090Z,9.37
2017-09-17T18:43:43.388Z,10.07
2017-09-17T18:46:14.688Z,11.23
2017-09-17T18:48:42.988Z,10.80
2017-09-17T18:51:15.108Z,12.37
2017-09-17T18:53:43.471Z,10.50
2017-09-17T18:56:12.080Z,9.73
2017-09-17T18:58:42.147Z,11.10
2017-09-17T19:01:11.039Z,9.80
2017-09-17T19:03:39.376Z,10.60
2017-09-17T19:06:08.630Z,8.87
2017-09-17T19:08:36.919Z,9.33
2017-09-17T19:11:05.311Z,8.43
2017-09-17T19:13:33.658Z,9.70
2017-09-17T19:16:01.940Z,9.50
2017-09-17T19:18:30.262Z,10.17
2017-09-17T19:20:58.594Z,8.63
2017-09-17T19:23:26.895Z,9.57
2017-09-17T19:25:55.264Z,9.60
2017-09-17T19:28:23.996Z,10.00
2017-09-17T19:30:52.295Z,9.47
2017-09-17T19:33:20.667Z,9.30
2017-09-17T19:35:49.024Z,11.27
2017-09-17T19:38:17.476Z,9.73
2017-09-17T19:40:46.892Z,10.00
2017-09-17T19:43:15.944Z,11.77
2017-09-17T19:45:44.283Z,13.23
2017-09-17T19:48:13.558Z,12.83
2017-09-17T19:50:42.642Z,13.70
2017-09-17T19:53:11.087Z,22.90
2017-09-17T19:55:39.386Z,29.73
2017-09-17T19:58:08.404Z,29.00
2017-09-17T20:00:37.468Z,24.20
2017-09-17T20:03:06.249Z,31.30
2017-09-17T20:05:34.547Z,27.60
2017-09-17T20:08:03.734Z,31.50
2017-09-17T20:10:32.611Z,38.37
2017-09-17T20:13:01.691Z,35.27
2017-09-17T20:15:30.776Z,30.10
2017-09-17T20:17:59.085Z,19.50
2017-09-17T20:20:27.392Z,16.97
2017-09-17T20:22:55.678Z,15.07
2017-09-17T20:25:23.972Z,15.23
2017-09-17T20:27:52.988Z,15.10
2017-09-17T20:30:22.125Z,16.87
2017-09-17T20:32:50.422Z,15.00
2017-09-17T20:35:18.760Z,14.07
2017-09-17T20:37:47.185Z,17.33
2017-09-17T20:40:16.227Z,16.70
2017-09-17T20:42:44.566Z,17.30
2017-09-17T20:45:13.631Z,17.20
2017-09-17T20:47:42.746Z,16.57
2017-09-17T20:50:12.553Z,14.70
2017-09-17T20:52:40.840Z,16.00
2017-09-17T20:55:09.913Z,15.87
2017-09-17T20:57:38.278Z,15.53
2017-09-17T21:00:07.483Z,14.40
2017-09-17T21:02:36.123Z,13.77
2017-09-17T21:05:05.227Z,13.50
2017-09-17T21:07:34.318Z,11.73
2017-09-17T21:10:02.672Z,12.40
2017-09-17T21:12:31.010Z,11.47
2017-09-17T21:15:00.077Z,10.77
2017-09-17T21:17:28.401Z,10.00
2017-09-17T21:19:56.800Z,11.63
2017-09-17T21:22:25.122Z,9.33
2017-09-17T21:24:54.138Z,9.13
2017-09-17T21:27:23.292Z,9.03
2017-09-17T21:29:51.642Z,10.17
2017-09-17T21:32:19.946Z,9.17
2017-09-17T21:34:48.982Z,10.57
2017-09-17T21:37:17.584Z,9.30
2017-09-17T21:39:46.920Z,9.57
2017-09-17T21:42:16.029Z,10.03
2017-09-17T21:44:44.327Z,9.60
2017-09-17T21:47:12.625Z,10.10
2017-09-17T21:49:41.539Z,10.40
2017-09-17T21:52:09.868Z,10.20
2017-09-17T21:54:38.170Z,9.80
2017-09-17T21:57:07.708Z,10.10
2017-09-17T21:59:36.008Z,9.77
2017-09-17T22:02:05.116Z,11.50
2017-09-17T22:04:33.490Z,11.37
2017-09-17T22:07:02.207Z,11.53
2017-09-17T22:09:30.514Z,13.10
2017-09-17T22:11:58.819Z,12.63
2017-09-17T22:14:27.108Z,12.50
2017-09-17T22:16:55.431Z,12.57
2017-09-17T22:19:23.729Z,9.43
2017-09-17T22:21:52.043Z,11.43
2017-09-17T22:24:20.992Z,10.87
2017-09-17T22:26:49.478Z,10.10
2017-09-17T22:29:17.774Z,10.80
2017-09-17T22:31:46.116Z,9.20
2017-09-17T22:34:15.186Z,9.97
2017-09-17T22:36:43.488Z,9.40
2017-09-17T22:39:13.302Z,10.30
2017-09-17T22:41:41.613Z,10.20
2017-09-17T22:44:11.246Z,10.50
2017-09-17T22:46:39.600Z,9.67
2017-09-17T22:49:08.679Z,10.87
2017-09-17T22:51:37.744Z,11.00
2017-09-17T22:54:06.024Z,11.30
2017-09-17T22:56:34.433Z,9.47
2017-09-17T22:59:02.710Z,9.63
2017-09-17T23:01:31.035Z,11.53
2017-09-17T23:03:59.351Z,11.57
2017-09-17T23:06:27.969Z,12.40
2017-09-17T23:08:56.306Z,10.37
2017-09-17T23:11:24.588Z,10.30
2017-09-17T23:13:52.938Z,10.50
2017-09-17T23:16:21.999Z,10.03
2017-09-17T23:18:51.404Z,9.53
2017-09-17T23:21:19.704Z,11.03
2017-09-17T23:23:48.575Z,9.37
2017-09-17T23:26:17.171Z,9.80
2017-09-17T23:28:45.494Z,11.20
2017-09-17T23:31:13.770Z,9.33
2017-09-17T23:33:42.161Z,10.03
2017-09-17T23:36:10.425Z,9.10
2017-09-17T23:38:39.031Z,9.80
2017-09-17T23:41:07.386Z,10.00
2017-09-17T23:43:35.676Z,10.30
2017-09-17T23:46:04.363Z,8.80
2017-09-17T23:48:32.833Z,8.87
2017-09-17T23:51:01.889Z,8.23
2017-09-17T23:53:36.616Z,8.70
2017-09-17T23:56:05.785Z,8.87
2017-09-17T23:58:34.339Z,9.07
